createdAt,value
2022-11-18T00:01:21.593Z,1.30
2022-11-18T00:03:49.706Z,1.27
2022-11-18T00:06:20.000Z,1.25
2022-11-18T00:08:47.831Z,1.00
2022-11-18T00:11:38.410Z,1.48
2022-11-18T00:14:21.414Z,1.40
2022-11-18T00:16:59.570Z,1.10
2022-11-18T00:19:29.717Z,1.30
2022-11-18T00:21:58.032Z,1.42
2022-11-18T00:24:26.590Z,1.30
2022-11-18T00:26:55.153Z,1.55
2022-11-18T00:29:23.127Z,0.80
2022-11-18T00:31:50.982Z,1.58
2022-11-18T00:34:19.754Z,1.33
2022-11-18T00:36:48.653Z,1.63
2022-11-18T00:39:19.262Z,1.50
2022-11-18T00:42:05.103Z,1.02
2022-11-18T00:44:32.740Z,1.90
2022-11-18T00:47:00.348Z,1.50
2022-11-18T00:49:27.950Z,1.98
2022-11-18T00:51:55.410Z,1.33
2022-11-18T00:54:22.913Z,2.03
2022-11-18T00:56:50.580Z,1.70
2022-11-18T00:59:18.381Z,1.50
2022-11-18T01:01:46.377Z,1.40
2022-11-18T01:04:13.983Z,1.55
2022-11-18T01:06:42.038Z,1.55
2022-11-18T01:09:09.554Z,1.02
2022-11-18T01:11:54.582Z,1.77
2022-11-18T01:14:22.240Z,1.08
2022-11-18T01:16:51.296Z,1.60
2022-11-18T01:19:19.946Z,1.70
2022-11-18T01:21:47.673Z,1.75
2022-11-18T01:24:15.363Z,1.58
2022-11-18T01:26:43.484Z,2.55
2022-11-18T01:29:11.462Z,1.55
2022-11-18T01:31:55.232Z,1.77
2022-11-18T01:34:29.206Z,1.70
2022-11-18T01:36:58.017Z,1.50
2022-11-18T01:39:26.208Z,1.83
2022-11-18T01:41:53.841Z,2.53
2022-11-18T01:44:58.384Z,1.50
2022-11-18T01:47:29.596Z,2.20
2022-11-18T01:49:57.815Z,1.88
2022-11-18T01:52:25.663Z,1.73
2022-11-18T01:54:58.942Z,1.70
2022-11-18T01:57:28.180Z,1.92
2022-11-18T01:59:58.884Z,1.70
2022-11-18T02:02:28.174Z,1.50
2022-11-18T02:04:58.067Z,1.98
2022-11-18T02:07:26.446Z,1.83
2022-11-18T02:09:56.245Z,1.40
2022-11-18T02:12:24.252Z,2.00
2022-11-18T02:14:52.826Z,1.90
2022-11-18T02:18:08.355Z,1.80
2022-11-18T02:20:43.098Z,3.05
2022-11-18T02:23:30.777Z,2.45
2022-11-18T02:26:22.188Z,2.55
2022-11-18T02:29:13.093Z,2.58
2022-11-18T02:32:02.979Z,2.13
2022-11-18T02:34:30.491Z,2.00
2022-11-18T02:37:13.623Z,2.95
2022-11-18T02:39:53.220Z,2.13
2022-11-18T02:42:23.022Z,2.13
2022-11-18T02:44:56.583Z,1.88
2022-11-18T02:47:28.114Z,2.88
2022-11-18T02:50:01.418Z,2.58
2022-11-18T02:52:29.138Z,2.72
2022-11-18T02:54:58.471Z,2.65
2022-11-18T02:57:30.198Z,2.88
2022-11-18T02:59:57.774Z,2.17
2022-11-18T03:02:25.385Z,3.28
2022-11-18T03:04:57.428Z,3.72
2022-11-18T03:07:37.293Z,2.20
2022-11-18T03:10:05.687Z,3.47
2022-11-18T03:12:41.535Z,2.53
2022-11-18T03:15:35.819Z,2.88
2022-11-18T03:18:21.922Z,2.92
2022-11-18T03:20:58.883Z,2.65
2022-11-18T03:23:38.815Z,3.03
2022-11-18T03:26:23.487Z,3.05
2022-11-18T03:29:02.765Z,2.83
2022-11-18T03:31:57.067Z,3.20
2022-11-18T03:34:39.247Z,3.40
2022-11-18T03:37:10.933Z,3.28
2022-11-18T03:39:43.968Z,2.70
2022-11-18T03:42:22.882Z,3.38
2022-11-18T03:44:57.903Z,3.30
2022-11-18T03:47:37.356Z,2.92
2022-11-18T03:50:17.778Z,4.53
2022-11-18T03:52:47.184Z,3.70
2022-11-18T03:55:20.375Z,3.15
2022-11-18T03:57:57.552Z,4.97
2022-11-18T04:00:30.593Z,3.85
2022-11-18T04:02:58.168Z,3.67
2022-11-18T04:05:25.865Z,4.22
2022-11-18T04:07:56.217Z,4.35
2022-11-18T04:10:30.716Z,3.67
2022-11-18T04:13:06.453Z,4.03
2022-11-18T04:15:37.876Z,5.47
2022-11-18T04:18:05.604Z,5.13
2022-11-18T04:20:33.821Z,3.47
2022-11-18T04:23:01.867Z,3.85
2022-11-18T04:25:29.403Z,3.88
2022-11-18T04:27:56.866Z,5.05
2022-11-18T04:30:24.526Z,4.50
2022-11-18T04:32:52.076Z,4.32
2022-11-18T04:35:19.608Z,4.63
2022-11-18T04:37:47.194Z,3.50
2022-11-18T04:40:14.779Z,5.65
2022-11-18T04:42:42.263Z,4.93
2022-11-18T04:45:10.555Z,5.93
2022-11-18T04:47:38.765Z,4.20
2022-11-18T04:50:06.908Z,5.30
2022-11-18T04:52:34.482Z,4.82
2022-11-18T04:55:02.014Z,4.80
2022-11-18T04:57:29.510Z,5.03
2022-11-18T04:59:56.998Z,4.20
2022-11-18T05:02:24.460Z,4.18
2022-11-18T05:04:51.970Z,3.95
2022-11-18T05:07:19.568Z,5.55
2022-11-18T05:09:47.074Z,5.30
2022-11-18T05:12:33.485Z,5.00
2022-11-18T05:15:01.500Z,4.47
2022-11-18T05:17:29.437Z,4.25
2022-11-18T05:19:56.946Z,3.55
2022-11-18T05:22:24.500Z,3.90
2022-11-18T05:24:52.022Z,3.85
2022-11-18T05:27:19.634Z,5.40
2022-11-18T05:29:47.142Z,4.45
2022-11-18T05:32:14.770Z,5.15
2022-11-18T05:34:43.518Z,5.13
2022-11-18T05:37:11.722Z,3.42
2022-11-18T05:39:39.391Z,4.72
2022-11-18T05:42:24.660Z,4.30
2022-11-18T05:44:57.791Z,3.72
2022-11-18T05:47:26.148Z,4.65
2022-11-18T05:49:53.715Z,5.15
2022-11-18T05:52:21.290Z,4.30
2022-11-18T05:54:52.015Z,4.93
2022-11-18T05:57:19.555Z,4.63
2022-11-18T05:59:47.119Z,5.25
2022-11-18T06:02:19.713Z,5.07
2022-11-18T06:04:51.693Z,4.07
2022-11-18T06:07:49.310Z,4.82
2022-11-18T06:10:22.354Z,3.42
2022-11-18T06:12:53.779Z,5.80
2022-11-18T06:15:28.683Z,3.57
2022-11-18T06:18:01.661Z,3.95
2022-11-18T06:20:29.864Z,3.65
2022-11-18T06:22:59.122Z,3.65
2022-11-18T06:25:26.767Z,3.58
2022-11-18T06:27:57.620Z,3.40
2022-11-18T06:30:25.083Z,4.45
2022-11-18T06:32:52.569Z,4.13
2022-11-18T06:35:20.260Z,3.35
2022-11-18T06:37:48.244Z,3.00
2022-11-18T06:40:15.790Z,4.03
2022-11-18T06:43:01.018Z,3.17
2022-11-18T06:45:28.750Z,2.70
2022-11-18T06:48:00.305Z,5.03
2022-11-18T06:50:29.420Z,5.93
2022-11-18T06:52:57.569Z,3.17
2022-11-18T06:55:25.292Z,2.40
2022-11-18T06:57:52.879Z,3.55
2022-11-18T07:00:20.622Z,3.45
2022-11-18T07:02:48.095Z,2.92
2022-11-18T07:05:15.617Z,3.28
2022-11-18T07:07:43.103Z,2.88
2022-11-18T07:10:11.394Z,2.55
2022-11-18T07:12:38.880Z,2.55
2022-11-18T07:15:06.876Z,3.75
2022-11-18T07:17:34.473Z,2.15
2022-11-18T07:20:01.980Z,3.75
2022-11-18T07:22:29.611Z,2.17
2022-11-18T07:24:57.177Z,3.50
2022-11-18T07:27:24.717Z,3.58
2022-11-18T07:29:52.197Z,3.53
2022-11-18T07:32:19.790Z,3.22
2022-11-18T07:34:47.311Z,2.75
2022-11-18T07:37:14.864Z,2.58
2022-11-18T07:39:42.425Z,2.63
2022-11-18T07:42:10.699Z,2.30
2022-11-18T07:44:38.235Z,2.83
2022-11-18T07:47:05.842Z,2.10
2022-11-18T07:49:33.364Z,2.42
2022-11-18T07:52:00.888Z,2.47
2022-11-18T07:54:28.423Z,2.50
2022-11-18T07:56:55.946Z,3.03
2022-11-18T07:59:23.509Z,2.58
2022-11-18T08:01:51.075Z,2.17
2022-11-18T08:04:18.715Z,2.50
2022-11-18T08:06:46.262Z,2.00
2022-11-18T08:09:13.828Z,3.22
2022-11-18T08:11:41.939Z,2.05
2022-11-18T08:14:09.546Z,3.67
2022-11-18T08:16:37.093Z,2.35
2022-11-18T08:19:04.668Z,4.50
2022-11-18T08:21:32.346Z,2.15
2022-11-18T08:24:00.138Z,2.10
2022-11-18T08:26:28.479Z,2.58
2022-11-18T08:28:56.418Z,2.13
2022-11-18T08:31:26.347Z,1.65
2022-11-18T08:34:04.618Z,2.40
2022-11-18T08:36:34.782Z,2.00
2022-11-18T08:39:04.343Z,2.53
2022-11-18T08:41:43.585Z,1.92
2022-11-18T08:44:13.755Z,1.40
2022-11-18T08:46:41.891Z,2.17
2022-11-18T08:49:09.516Z,2.25
2022-11-18T08:51:37.019Z,2.28
2022-11-18T08:54:04.654Z,1.85
2022-11-18T08:56:32.137Z,2.00
2022-11-18T08:58:59.642Z,2.22
2022-11-18T09:01:28.386Z,2.78
2022-11-18T09:03:57.576Z,1.75
2022-11-18T09:06:25.414Z,2.75
2022-11-18T09:08:53.439Z,2.10
2022-11-18T09:11:23.930Z,2.15
2022-11-18T09:16:45.050Z,2.78
2022-11-18T09:19:40.057Z,2.53
2022-11-18T09:22:00.869Z,2.35
2022-11-18T09:24:28.635Z,2.25
2022-11-18T09:26:56.375Z,2.65
2022-11-18T09:29:26.314Z,2.05
2022-11-18T09:31:55.411Z,2.05
2022-11-18T09:34:24.005Z,2.15
2022-11-18T09:36:55.795Z,2.80
2022-11-18T09:39:26.433Z,2.13
2022-11-18T09:42:28.576Z,2.38
2022-11-18T09:45:24.723Z,2.40
2022-11-18T09:47:53.375Z,2.55
2022-11-18T09:53:20.889Z,1.67
2022-11-18T09:55:50.065Z,2.42
2022-11-18T09:58:44.575Z,1.70
2022-11-18T10:01:20.764Z,1.92
2022-11-18T10:03:48.290Z,2.17
2022-11-18T10:06:26.365Z,1.67
2022-11-18T10:08:58.174Z,2.47
2022-11-18T10:11:29.140Z,1.80
2022-11-18T10:14:15.886Z,2.33
2022-11-18T10:16:58.744Z,2.17
2022-11-18T10:19:34.954Z,2.53
2022-11-18T10:22:23.983Z,2.38
2022-11-18T10:24:55.096Z,1.77
2022-11-18T10:27:27.923Z,2.10
2022-11-18T10:29:58.588Z,2.17
2022-11-18T10:32:26.217Z,1.80
2022-11-18T10:34:59.512Z,1.73
2022-11-18T10:37:39.031Z,2.08
2022-11-18T10:40:26.614Z,3.47
2022-11-18T10:42:54.289Z,2.28
2022-11-18T10:45:25.044Z,2.05
2022-11-18T10:48:09.279Z,2.42
2022-11-18T10:50:39.529Z,2.53
2022-11-18T10:53:27.836Z,2.53
2022-11-18T10:56:08.857Z,1.80
2022-11-18T10:58:38.633Z,2.35
2022-11-18T11:01:07.381Z,2.53
2022-11-18T11:03:43.369Z,3.00
2022-11-18T11:06:30.791Z,2.17
2022-11-18T11:09:02.079Z,2.13
2022-11-18T11:11:35.611Z,3.20
2022-11-18T11:14:18.717Z,2.58
2022-11-18T11:16:59.889Z,1.63
2022-11-18T11:19:36.640Z,2.15
2022-11-18T11:22:04.153Z,2.50
2022-11-18T11:24:31.651Z,2.65
2022-11-18T11:30:14.435Z,2.40
2022-11-18T11:32:56.946Z,3.25
2022-11-18T11:37:59.066Z,4.20
2022-11-18T11:40:31.257Z,2.40
2022-11-18T11:43:04.552Z,2.50
2022-11-18T11:45:40.468Z,4.40
2022-11-18T11:48:29.346Z,3.72
2022-11-18T11:51:05.233Z,4.20
2022-11-18T11:53:55.074Z,3.33
2022-11-18T11:56:47.661Z,3.03
2022-11-18T11:59:27.320Z,4.18
2022-11-18T12:01:54.816Z,3.35
2022-11-18T12:04:44.918Z,3.30
2022-11-18T12:07:20.470Z,3.67
2022-11-18T12:10:21.635Z,4.68
2022-11-18T12:13:08.921Z,7.82
2022-11-18T12:15:42.195Z,3.83
2022-11-18T12:18:50.183Z,4.32
2022-11-18T12:21:45.608Z,4.32
2022-11-18T12:24:18.991Z,4.10
2022-11-18T12:26:48.722Z,5.57
2022-11-18T12:29:19.380Z,5.95
2022-11-18T12:31:54.340Z,7.03
2022-11-18T12:34:32.883Z,5.95
2022-11-18T12:37:26.497Z,6.50
2022-11-18T12:39:56.751Z,7.38
2022-11-18T12:42:55.161Z,7.82
2022-11-18T12:45:43.355Z,8.20
2022-11-18T12:48:28.844Z,6.78
2022-11-18T12:50:58.924Z,6.75
2022-11-18T12:53:45.994Z,7.05
2022-11-18T12:56:13.585Z,7.40
2022-11-18T12:58:46.081Z,6.40
2022-11-18T13:01:17.220Z,6.38
2022-11-18T13:03:45.253Z,5.80
2022-11-18T13:06:25.274Z,6.85
2022-11-18T13:08:56.809Z,7.55
2022-11-18T13:11:49.502Z,8.20
2022-11-18T13:17:19.848Z,6.88
2022-11-18T13:19:59.858Z,9.23
2022-11-18T13:22:45.225Z,8.07
2022-11-18T13:25:26.491Z,6.93
2022-11-18T13:28:11.718Z,8.20
2022-11-18T13:30:50.709Z,6.40
2022-11-18T13:33:18.271Z,8.07
2022-11-18T13:35:45.876Z,8.40
2022-11-18T13:38:28.105Z,6.72
2022-11-18T13:41:13.000Z,6.03
2022-11-18T13:43:40.493Z,8.35
2022-11-18T13:46:17.319Z,6.95
2022-11-18T13:48:58.474Z,8.93
2022-11-18T13:51:26.670Z,8.70
2022-11-18T13:53:54.345Z,6.85
2022-11-18T13:56:34.865Z,7.32
2022-11-18T13:59:20.645Z,7.68
2022-11-18T14:04:51.950Z,7.43
2022-11-18T14:07:36.558Z,6.22
2022-11-18T14:10:08.931Z,6.97
2022-11-18T14:15:43.297Z,7.38
2022-11-18T14:18:46.474Z,8.57
2022-11-18T14:21:14.748Z,7.88
2022-11-18T14:23:45.228Z,6.35
2022-11-18T14:26:12.732Z,6.97
2022-11-18T14:28:40.623Z,8.23
2022-11-18T14:31:16.480Z,6.57
2022-11-18T14:34:23.542Z,6.93
2022-11-18T14:36:52.685Z,5.70
2022-11-18T14:39:27.801Z,6.15
2022-11-18T14:41:56.551Z,5.55
2022-11-18T14:44:26.788Z,6.07
2022-11-18T14:46:59.988Z,5.70
2022-11-18T14:49:30.799Z,8.10
2022-11-18T14:51:58.908Z,6.40
2022-11-18T14:54:27.970Z,6.45
2022-11-18T14:57:00.873Z,7.38
2022-11-18T14:59:28.987Z,6.60
2022-11-18T15:01:58.543Z,7.88
2022-11-18T15:04:26.336Z,7.57
2022-11-18T15:06:54.285Z,7.15
2022-11-18T15:09:22.151Z,6.63
2022-11-18T15:11:49.788Z,6.90
2022-11-18T15:14:17.702Z,7.93
2022-11-18T15:16:45.433Z,7.65
2022-11-18T15:19:16.588Z,8.00
2022-11-18T15:21:45.303Z,8.50
2022-11-18T15:24:12.950Z,9.38
2022-11-18T15:26:43.516Z,7.80
2022-11-18T15:29:20.383Z,8.45
2022-11-18T15:31:48.888Z,7.55
2022-11-18T15:34:18.258Z,8.00
2022-11-18T15:36:46.429Z,9.27
2022-11-18T15:39:14.212Z,7.93
2022-11-18T15:41:43.503Z,7.97
2022-11-18T15:44:11.968Z,7.13
2022-11-18T15:46:40.012Z,7.53
2022-11-18T15:49:09.676Z,8.25
2022-11-18T15:51:37.967Z,10.13
2022-11-18T15:54:05.518Z,8.55
2022-11-18T15:56:34.245Z,8.77
2022-11-18T15:59:02.830Z,9.05
2022-11-18T16:01:38.492Z,10.45
2022-11-18T16:04:08.060Z,9.43
2022-11-18T16:06:36.012Z,8.63
2022-11-18T16:09:05.045Z,7.35
2022-11-18T16:11:51.081Z,10.15
2022-11-18T16:14:21.873Z,7.70
2022-11-18T16:16:51.629Z,9.40
2022-11-18T16:19:22.022Z,9.15
2022-11-18T16:21:52.700Z,10.80
2022-11-18T16:24:23.227Z,12.25
2022-11-18T16:26:51.332Z,10.18
2022-11-18T16:29:20.839Z,10.38
2022-11-18T16:31:52.301Z,8.77
2022-11-18T16:34:20.026Z,9.90
2022-11-18T16:36:50.151Z,9.45
2022-11-18T16:39:20.825Z,10.35
2022-11-18T16:41:48.454Z,9.80
2022-11-18T16:44:17.406Z,10.32
2022-11-18T16:46:50.568Z,10.27
2022-11-18T16:49:20.572Z,9.13
2022-11-18T16:51:51.746Z,10.82
2022-11-18T16:54:30.783Z,10.43
2022-11-18T16:57:00.281Z,10.30
2022-11-18T16:59:29.940Z,9.82
2022-11-18T17:01:59.608Z,10.40
2022-11-18T17:04:29.011Z,10.45
2022-11-18T17:06:59.626Z,10.15
2022-11-18T17:09:28.684Z,9.07
2022-11-18T17:11:57.061Z,8.65
2022-11-18T17:14:24.637Z,9.90
2022-11-18T17:16:53.568Z,9.25
2022-11-18T17:19:23.378Z,8.98
2022-11-18T17:21:52.777Z,9.90
2022-11-18T17:24:23.037Z,8.70
2022-11-18T17:26:52.066Z,10.38
2022-11-18T17:29:20.167Z,9.45
2022-11-18T17:31:47.992Z,8.40
2022-11-18T17:34:17.029Z,8.25
2022-11-18T17:36:44.976Z,10.95
2022-11-18T17:39:13.876Z,10.13
2022-11-18T17:41:59.090Z,11.43
2022-11-18T17:44:28.506Z,10.57
2022-11-18T17:46:56.095Z,12.02
2022-11-18T17:49:23.593Z,10.77
2022-11-18T17:51:52.192Z,12.70
2022-11-18T17:54:20.877Z,13.80
2022-11-18T17:56:49.894Z,13.23
2022-11-18T17:59:17.652Z,14.65
2022-11-18T18:01:46.564Z,12.93
2022-11-18T18:04:20.092Z,12.40
2022-11-18T18:06:52.881Z,13.90
2022-11-18T18:09:28.548Z,13.30
2022-11-18T18:11:57.800Z,12.93
2022-11-18T18:14:24.309Z,13.07
2022-11-18T18:16:52.947Z,12.52
2022-11-18T18:19:22.908Z,12.73
2022-11-18T18:21:50.683Z,13.07
2022-11-18T18:24:20.723Z,13.05
2022-11-18T18:26:48.924Z,15.77
2022-11-18T18:29:16.628Z,14.50
2022-11-18T18:31:44.588Z,13.80
2022-11-18T18:34:12.162Z,13.43
2022-11-18T18:36:40.846Z,12.68
2022-11-18T18:39:08.324Z,15.85
2022-11-18T18:41:36.382Z,14.05
2022-11-18T18:44:03.994Z,14.15
2022-11-18T18:46:32.241Z,12.02
2022-11-18T18:49:08.934Z,13.52
2022-11-18T18:51:39.606Z,13.05
2022-11-18T18:54:09.040Z,14.15
2022-11-18T18:56:36.720Z,15.68
2022-11-18T18:59:04.468Z,12.10
2022-11-18T19:01:33.490Z,13.45
2022-11-18T19:04:03.686Z,13.57
2022-11-18T19:09:26.859Z,12.70
2022-11-18T19:12:12.624Z,14.88
2022-11-18T19:14:40.342Z,14.30
2022-11-18T19:17:12.571Z,15.40
2022-11-18T19:19:59.674Z,14.43
2022-11-18T19:22:30.613Z,14.60
2022-11-18T19:24:59.308Z,15.30
2022-11-18T19:27:27.056Z,13.98
2022-11-18T19:29:54.620Z,16.02
2022-11-18T19:32:22.292Z,14.63
2022-11-18T19:34:49.878Z,12.90
2022-11-18T19:37:17.412Z,12.93
2022-11-18T19:39:44.852Z,14.35
2022-11-18T19:42:12.388Z,14.68
2022-11-18T19:44:40.224Z,13.82
2022-11-18T19:47:07.719Z,14.98
2022-11-18T19:49:35.256Z,11.30
2022-11-18T19:52:03.298Z,10.15
2022-11-18T19:54:30.921Z,10.25
2022-11-18T19:56:58.472Z,11.10
2022-11-18T19:59:25.986Z,10.75
2022-11-18T20:01:53.556Z,9.63
2022-11-18T20:04:21.066Z,10.20
2022-11-18T20:06:49.008Z,10.07
2022-11-18T20:09:16.816Z,10.82
2022-11-18T20:11:45.641Z,9.90
2022-11-18T20:14:13.503Z,9.07
2022-11-18T20:16:41.888Z,8.70
2022-11-18T20:19:13.469Z,10.10
2022-11-18T20:21:43.980Z,10.55
2022-11-18T20:24:16.845Z,11.70
2022-11-18T20:26:44.953Z,10.90
2022-11-18T20:29:12.951Z,9.60
2022-11-18T20:31:40.506Z,12.75
2022-11-18T20:34:08.386Z,12.70
2022-11-18T20:36:37.546Z,8.00
2022-11-18T20:39:12.959Z,10.60
2022-11-18T20:41:40.390Z,13.32
2022-11-18T20:44:08.060Z,11.90
2022-11-18T20:46:35.512Z,14.07
2022-11-18T20:49:03.018Z,14.88
2022-11-18T20:51:30.716Z,13.77
2022-11-18T20:53:59.875Z,12.52
2022-11-18T20:56:28.666Z,15.50
2022-11-18T20:58:58.208Z,15.00
2022-11-18T21:01:28.533Z,13.77
2022-11-18T21:04:01.506Z,14.40
2022-11-18T21:06:31.937Z,15.43
2022-11-18T21:09:02.454Z,15.60
2022-11-18T21:11:30.440Z,14.60
2022-11-18T21:14:20.042Z,16.23
2022-11-18T21:16:49.493Z,14.93
2022-11-18T21:19:17.286Z,15.27
2022-11-18T21:21:48.867Z,15.05
2022-11-18T21:24:18.893Z,16.83
2022-11-18T21:26:48.601Z,13.80
2022-11-18T21:29:17.854Z,12.60
2022-11-18T21:31:47.043Z,14.40
2022-11-18T21:34:15.934Z,14.77
2022-11-18T21:36:47.865Z,12.65
2022-11-18T21:39:18.337Z,12.48
2022-11-18T21:41:50.620Z,12.88
2022-11-18T21:44:21.352Z,13.15
2022-11-18T21:46:48.846Z,13.63
2022-11-18T21:49:17.135Z,12.65
2022-11-18T21:51:45.211Z,14.02
2022-11-18T21:54:15.792Z,11.15
2022-11-18T21:56:43.496Z,14.68
2022-11-18T21:59:10.977Z,10.63
2022-11-18T22:01:38.410Z,14.73
2022-11-18T22:04:06.807Z,13.00
2022-11-18T22:06:35.361Z,11.63
2022-11-18T22:09:05.980Z,15.05
2022-11-18T22:11:33.451Z,14.93
2022-11-18T22:14:01.016Z,13.63
2022-11-18T22:16:28.564Z,13.02
2022-11-18T22:19:01.522Z,13.20
2022-11-18T22:21:32.641Z,13.90
2022-11-18T22:24:01.877Z,10.13
2022-11-18T22:26:30.467Z,13.18
2022-11-18T22:28:59.255Z,12.18
2022-11-18T22:31:28.865Z,11.07
2022-11-18T22:33:57.777Z,13.85
2022-11-18T22:36:27.424Z,11.65
2022-11-18T22:38:56.308Z,14.90
2022-11-18T22:41:44.080Z,12.85
2022-11-18T22:44:14.762Z,13.20
2022-11-18T22:46:46.093Z,13.07
2022-11-18T22:49:16.490Z,8.13
2022-11-18T22:51:44.225Z,13.38
2022-11-18T22:54:42.829Z,15.63
2022-11-18T22:57:01.657Z,14.73
2022-11-18T22:59:29.107Z,9.20
2022-11-18T23:01:56.752Z,13.63
2022-11-18T23:04:24.279Z,10.93
2022-11-18T23:06:51.787Z,14.00
2022-11-18T23:09:19.552Z,14.68
2022-11-18T23:12:04.402Z,12.70
2022-11-18T23:14:32.080Z,14.65
2022-11-18T23:16:59.944Z,11.98
2022-11-18T23:19:27.441Z,12.38
2022-11-18T23:21:55.005Z,13.48
2022-11-18T23:24:22.953Z,14.38
2022-11-18T23:26:50.757Z,15.60
2022-11-18T23:29:18.411Z,9.68
2022-11-18T23:31:46.320Z,11.65
2022-11-18T23:34:15.708Z,15.75
2022-11-18T23:36:44.052Z,9.05
2022-11-18T23:39:11.916Z,8.98
2022-11-18T23:41:39.665Z,15.25
2022-11-18T23:44:07.838Z,14.35
2022-11-18T23:46:35.469Z,17.75
2022-11-18T23:49:02.964Z,16.50
2022-11-18T23:51:30.520Z,13.70
2022-11-18T23:53:59.240Z,15.02
2022-11-18T23:56:28.514Z,16.17
2022-11-18T23:58:57.428Z,14.52
